sensor_id;sensor_type;location;lat;lon;timestamp;pressure;altitude;pressure_sealevel;temperature
69007;BMP180;56061;51.748;19.620;2022-09-12T00:00:49;98640.20;;;10.40
69007;BMP180;56061;51.748;19.620;2022-09-12T00:03:16;98639.60;;;10.40
69007;BMP180;56061;51.748;19.620;2022-09-12T00:05:46;98639.20;;;10.40
69007;BMP180;56061;51.748;19.620;2022-09-12T00:08:13;98641.80;;;10.40
69007;BMP180;56061;51.748;19.620;2022-09-12T00:10:42;98640.60;;;10.40
69007;BMP180;56061;51.748;19.620;2022-09-12T00:13:10;98635.80;;;10.50
69007;BMP180;56061;51.748;19.620;2022-09-12T00:15:43;98638.20;;;10.50
69007;BMP180;56061;51.748;19.620;2022-09-12T00:18:15;98639.80;;;10.50
69007;BMP180;56061;51.748;19.620;2022-09-12T00:20:44;98630.80;;;10.50
69007;BMP180;56061;51.748;19.620;2022-09-12T00:23:13;98634.60;;;10.50
69007;BMP180;56061;51.748;19.620;2022-09-12T00:25:42;98632.40;;;10.50
69007;BMP180;56061;51.748;19.620;2022-09-12T00:28:09;98635.80;;;10.50
69007;BMP180;56061;51.748;19.620;2022-09-12T00:30:47;98634.80;;;10.50
69007;BMP180;56061;51.748;19.620;2022-09-12T00:33:16;98638.00;;;10.50
69007;BMP180;56061;51.748;19.620;2022-09-12T00:35:49;98634.80;;;10.50
69007;BMP180;56061;51.748;19.620;2022-09-12T00:38:18;98638.80;;;10.40
69007;BMP180;56061;51.748;19.620;2022-09-12T00:40:47;98643.40;;;10.40
69007;BMP180;56061;51.748;19.620;2022-09-12T00:43:39;98644.40;;;10.34
69007;BMP180;56061;51.748;19.620;2022-09-12T00:46:38;98642.40;;;10.30
69007;BMP180;56061;51.748;19.620;2022-09-12T00:49:08;98642.40;;;10.20
69007;BMP180;56061;51.748;19.620;2022-09-12T00:51:38;98641.60;;;10.22
69007;BMP180;56061;51.748;19.620;2022-09-12T00:54:11;98645.20;;;10.24
69007;BMP180;56061;51.748;19.620;2022-09-12T00:56:42;98644.00;;;10.20
69007;BMP180;56061;51.748;19.620;2022-09-12T00:59:18;98643.40;;;10.20
69007;BMP180;56061;51.748;19.620;2022-09-12T01:01:48;98642.80;;;10.20
69007;BMP180;56061;51.748;19.620;2022-09-12T01:04:19;98638.40;;;10.20
69007;BMP180;56061;51.748;19.620;2022-09-12T01:06:48;98642.60;;;10.20
69007;BMP180;56061;51.748;19.620;2022-09-12T01:09:19;98641.60;;;10.20
69007;BMP180;56061;51.748;19.620;2022-09-12T01:11:49;98642.40;;;10.20
69007;BMP180;56061;51.748;19.620;2022-09-12T01:14:18;98636.80;;;10.22
69007;BMP180;56061;51.748;19.620;2022-09-12T01:16:47;98634.00;;;10.26
69007;BMP180;56061;51.748;19.620;2022-09-12T01:23:01;98637.60;;;10.20
69007;BMP180;56061;51.748;19.620;2022-09-12T01:35:36;98637.60;;;10.20
69007;BMP180;56061;51.748;19.620;2022-09-12T01:38:29;98641.00;;;10.14
69007;BMP180;56061;51.748;19.620;2022-09-12T01:50:07;98644.60;;;10.10
69007;BMP180;56061;51.748;19.620;2022-09-12T01:52:44;98635.20;;;10.10
69007;BMP180;56061;51.748;19.620;2022-09-12T01:58:13;98646.00;;;10.00
69007;BMP180;56061;51.748;19.620;2022-09-12T02:00:54;98649.60;;;10.00
69007;BMP180;56061;51.748;19.620;2022-09-12T02:03:36;98652.20;;;10.00
69007;BMP180;56061;51.748;19.620;2022-09-12T02:06:14;98650.60;;;10.02
69007;BMP180;56061;51.748;19.620;2022-09-12T02:08:49;98648.80;;;10.00
69007;BMP180;56061;51.748;19.620;2022-09-12T02:11:30;98647.20;;;10.00
69007;BMP180;56061;51.748;19.620;2022-09-12T02:14:22;98650.00;;;10.00
69007;BMP180;56061;51.748;19.620;2022-09-12T02:16:55;98652.20;;;10.00
69007;BMP180;56061;51.748;19.620;2022-09-12T02:19:32;98645.20;;;10.00
69007;BMP180;56061;51.748;19.620;2022-09-12T02:22:02;98648.20;;;10.00
69007;BMP180;56061;51.748;19.620;2022-09-12T02:24:41;98645.40;;;9.90
69007;BMP180;56061;51.748;19.620;2022-09-12T02:27:15;98648.80;;;9.90
69007;BMP180;56061;51.748;19.620;2022-09-12T02:29:43;98649.20;;;9.90
69007;BMP180;56061;51.748;19.620;2022-09-12T02:32:17;98649.00;;;9.84
69007;BMP180;56061;51.748;19.620;2022-09-12T02:35:02;98657.40;;;9.90
69007;BMP180;56061;51.748;19.620;2022-09-12T02:38:09;98655.40;;;9.90
69007;BMP180;56061;51.748;19.620;2022-09-12T02:40:38;98653.40;;;9.84
69007;BMP180;56061;51.748;19.620;2022-09-12T02:43:06;98654.20;;;9.82
69007;BMP180;56061;51.748;19.620;2022-09-12T02:45:35;98650.00;;;9.88
69007;BMP180;56061;51.748;19.620;2022-09-12T02:48:09;98650.80;;;9.80
69007;BMP180;56061;51.748;19.620;2022-09-12T02:50:39;98648.60;;;9.84
69007;BMP180;56061;51.748;19.620;2022-09-12T02:53:08;98648.40;;;9.90
69007;BMP180;56061;51.748;19.620;2022-09-12T02:55:39;98650.20;;;9.80
69007;BMP180;56061;51.748;19.620;2022-09-12T02:58:13;98648.20;;;9.70
69007;BMP180;56061;51.748;19.620;2022-09-12T03:00:56;98647.60;;;9.62
69007;BMP180;56061;51.748;19.620;2022-09-12T03:06:36;98661.00;;;9.70
69007;BMP180;56061;51.748;19.620;2022-09-12T03:12:08;98660.80;;;9.60
69007;BMP180;56061;51.748;19.620;2022-09-12T03:14:51;98666.20;;;9.56
69007;BMP180;56061;51.748;19.620;2022-09-12T03:17:40;98664.00;;;9.60
69007;BMP180;56061;51.748;19.620;2022-09-12T03:20:17;98662.60;;;9.60
69007;BMP180;56061;51.748;19.620;2022-09-12T03:22:56;98665.20;;;9.60
69007;BMP180;56061;51.748;19.620;2022-09-12T03:25:31;98667.60;;;9.60
69007;BMP180;56061;51.748;19.620;2022-09-12T03:28:13;98670.00;;;9.60
69007;BMP180;56061;51.748;19.620;2022-09-12T03:30:46;98671.80;;;9.60
69007;BMP180;56061;51.748;19.620;2022-09-12T03:33:20;98673.60;;;9.60
69007;BMP180;56061;51.748;19.620;2022-09-12T03:35:48;98671.40;;;9.70
69007;BMP180;56061;51.748;19.620;2022-09-12T03:38:15;98674.80;;;9.70
69007;BMP180;56061;51.748;19.620;2022-09-12T03:40:42;98678.20;;;9.70
69007;BMP180;56061;51.748;19.620;2022-09-12T03:43:09;98684.60;;;9.70
69007;BMP180;56061;51.748;19.620;2022-09-12T03:45:36;98688.40;;;9.70
69007;BMP180;56061;51.748;19.620;2022-09-12T03:48:04;98690.40;;;9.70
69007;BMP180;56061;51.748;19.620;2022-09-12T03:50:31;98690.20;;;9.70
69007;BMP180;56061;51.748;19.620;2022-09-12T03:52:58;98693.40;;;9.70
69007;BMP180;56061;51.748;19.620;2022-09-12T03:55:25;98693.00;;;9.70
69007;BMP180;56061;51.748;19.620;2022-09-12T03:57:55;98694.40;;;9.70
69007;BMP180;56061;51.748;19.620;2022-09-12T04:00:23;98700.40;;;9.68
69007;BMP180;56061;51.748;19.620;2022-09-12T04:02:56;98701.40;;;9.68
69007;BMP180;56061;51.748;19.620;2022-09-12T04:05:24;98699.80;;;9.60
69007;BMP180;56061;51.748;19.620;2022-09-12T04:07:51;98700.00;;;9.60
69007;BMP180;56061;51.748;19.620;2022-09-12T04:10:18;98696.80;;;9.60
69007;BMP180;56061;51.748;19.620;2022-09-12T04:12:44;98696.80;;;9.66
69007;BMP180;56061;51.748;19.620;2022-09-12T04:15:11;98700.20;;;9.70
69007;BMP180;56061;51.748;19.620;2022-09-12T04:17:37;98700.00;;;9.74
69007;BMP180;56061;51.748;19.620;2022-09-12T04:20:05;98702.00;;;9.80
69007;BMP180;56061;51.748;19.620;2022-09-12T04:22:32;98702.20;;;9.70
69007;BMP180;56061;51.748;19.620;2022-09-12T04:24:59;98706.60;;;9.70
69007;BMP180;56061;51.748;19.620;2022-09-12T04:27:26;98705.60;;;9.70
69007;BMP180;56061;51.748;19.620;2022-09-12T04:29:52;98704.80;;;9.70
69007;BMP180;56061;51.748;19.620;2022-09-12T04:32:20;98704.60;;;9.80
69007;BMP180;56061;51.748;19.620;2022-09-12T04:34:47;98709.60;;;9.70
69007;BMP180;56061;51.748;19.620;2022-09-12T04:37:14;98709.20;;;9.80
69007;BMP180;56061;51.748;19.620;2022-09-12T04:39:42;98709.00;;;9.90
69007;BMP180;56061;51.748;19.620;2022-09-12T04:42:08;98713.60;;;9.90
69007;BMP180;56061;51.748;19.620;2022-09-12T04:44:35;98715.40;;;10.00
69007;BMP180;56061;51.748;19.620;2022-09-12T04:47:01;98715.40;;;10.06
69007;BMP180;56061;51.748;19.620;2022-09-12T04:49:28;98721.80;;;10.10
69007;BMP180;56061;51.748;19.620;2022-09-12T04:51:55;98720.80;;;10.10
69007;BMP180;56061;51.748;19.620;2022-09-12T04:54:21;98727.00;;;10.10
69007;BMP180;56061;51.748;19.620;2022-09-12T04:56:50;98728.40;;;10.20
69007;BMP180;56061;51.748;19.620;2022-09-12T04:59:19;98726.80;;;10.30
69007;BMP180;56061;51.748;19.620;2022-09-12T05:01:46;98728.00;;;10.40
69007;BMP180;56061;51.748;19.620;2022-09-12T05:04:13;98732.20;;;10.40
69007;BMP180;56061;51.748;19.620;2022-09-12T05:06:41;98726.40;;;10.40
69007;BMP180;56061;51.748;19.620;2022-09-12T05:09:11;98730.00;;;10.50
69007;BMP180;56061;51.748;19.620;2022-09-12T05:11:40;98722.20;;;10.50
69007;BMP180;56061;51.748;19.620;2022-09-12T05:14:28;98726.60;;;10.60
69007;BMP180;56061;51.748;19.620;2022-09-12T05:16:55;98728.60;;;10.60
69007;BMP180;56061;51.748;19.620;2022-09-12T05:19:27;98731.80;;;10.70
69007;BMP180;56061;51.748;19.620;2022-09-12T05:21:54;98731.40;;;10.70
69007;BMP180;56061;51.748;19.620;2022-09-12T05:24:21;98730.80;;;10.74
69007;BMP180;56061;51.748;19.620;2022-09-12T05:26:47;98734.80;;;10.80
69007;BMP180;56061;51.748;19.620;2022-09-12T05:29:14;98732.40;;;10.90
69007;BMP180;56061;51.748;19.620;2022-09-12T05:31:43;98731.60;;;10.90
69007;BMP180;56061;51.748;19.620;2022-09-12T05:34:09;98732.80;;;11.00
69007;BMP180;56061;51.748;19.620;2022-09-12T05:36:36;98733.00;;;11.06
69007;BMP180;56061;51.748;19.620;2022-09-12T05:39:03;98737.20;;;11.10
69007;BMP180;56061;51.748;19.620;2022-09-12T05:41:33;98740.00;;;11.20
69007;BMP180;56061;51.748;19.620;2022-09-12T05:44:06;98730.20;;;11.30
69007;BMP180;56061;51.748;19.620;2022-09-12T05:46:39;98734.40;;;11.30
69007;BMP180;56061;51.748;19.620;2022-09-12T05:49:09;98731.20;;;11.30
69007;BMP180;56061;51.748;19.620;2022-09-12T05:51:40;98737.60;;;11.30
69007;BMP180;56061;51.748;19.620;2022-09-12T05:54:10;98739.80;;;11.40
69007;BMP180;56061;51.748;19.620;2022-09-12T05:56:43;98735.20;;;11.40
69007;BMP180;56061;51.748;19.620;2022-09-12T05:59:15;98736.00;;;11.30
69007;BMP180;56061;51.748;19.620;2022-09-12T06:01:42;98733.20;;;11.40
69007;BMP180;56061;51.748;19.620;2022-09-12T06:04:10;98732.80;;;11.40
69007;BMP180;56061;51.748;19.620;2022-09-12T06:06:40;98727.40;;;11.40
69007;BMP180;56061;51.748;19.620;2022-09-12T06:09:08;98730.40;;;11.40
69007;BMP180;56061;51.748;19.620;2022-09-12T06:11:37;98737.40;;;11.50
69007;BMP180;56061;51.748;19.620;2022-09-12T06:14:09;98735.00;;;11.60
69007;BMP180;56061;51.748;19.620;2022-09-12T06:16:36;98736.00;;;11.70
69007;BMP180;56061;51.748;19.620;2022-09-12T06:19:15;98746.20;;;11.70
69007;BMP180;56061;51.748;19.620;2022-09-12T06:21:43;98742.20;;;11.80
69007;BMP180;56061;51.748;19.620;2022-09-12T06:24:10;98741.60;;;11.80
69007;BMP180;56061;51.748;19.620;2022-09-12T06:26:37;98744.60;;;11.86
69007;BMP180;56061;51.748;19.620;2022-09-12T06:29:04;98743.60;;;12.00
69007;BMP180;56061;51.748;19.620;2022-09-12T06:31:35;98742.20;;;12.00
69007;BMP180;56061;51.748;19.620;2022-09-12T06:34:05;98744.00;;;12.10
69007;BMP180;56061;51.748;19.620;2022-09-12T06:36:38;98740.40;;;12.20
69007;BMP180;56061;51.748;19.620;2022-09-12T06:39:10;98751.40;;;12.30
69007;BMP180;56061;51.748;19.620;2022-09-12T06:41:37;98745.60;;;12.32
69007;BMP180;56061;51.748;19.620;2022-09-12T06:44:18;98755.60;;;12.42
69007;BMP180;56061;51.748;19.620;2022-09-12T06:46:46;98751.40;;;12.52
69007;BMP180;56061;51.748;19.620;2022-09-12T06:49:13;98753.20;;;12.60
69007;BMP180;56061;51.748;19.620;2022-09-12T06:51:40;98751.40;;;12.70
69007;BMP180;56061;51.748;19.620;2022-09-12T06:54:12;98753.00;;;12.72
69007;BMP180;56061;51.748;19.620;2022-09-12T06:56:39;98751.80;;;12.80
69007;BMP180;56061;51.748;19.620;2022-09-12T06:59:06;98750.20;;;12.88
69007;BMP180;56061;51.748;19.620;2022-09-12T07:01:32;98755.20;;;12.90
69007;BMP180;56061;51.748;19.620;2022-09-12T07:04:02;98759.00;;;12.96
69007;BMP180;56061;51.748;19.620;2022-09-12T07:06:36;98765.80;;;13.00
69007;BMP180;56061;51.748;19.620;2022-09-12T07:09:07;98763.80;;;13.00
69007;BMP180;56061;51.748;19.620;2022-09-12T07:11:37;98753.20;;;13.00
69007;BMP180;56061;51.748;19.620;2022-09-12T07:14:06;98756.60;;;12.90
69007;BMP180;56061;51.748;19.620;2022-09-12T07:16:34;98762.20;;;13.00
69007;BMP180;56061;51.748;19.620;2022-09-12T07:19:05;98759.20;;;13.10
69007;BMP180;56061;51.748;19.620;2022-09-12T07:21:32;98761.00;;;13.20
69007;BMP180;56061;51.748;19.620;2022-09-12T07:24:02;98761.40;;;13.30
69007;BMP180;56061;51.748;19.620;2022-09-12T07:26:28;98760.00;;;13.34
69007;BMP180;56061;51.748;19.620;2022-09-12T07:28:57;98765.00;;;13.40
69007;BMP180;56061;51.748;19.620;2022-09-12T07:31:44;98762.60;;;13.52
69007;BMP180;56061;51.748;19.620;2022-09-12T07:34:11;98763.40;;;13.60
69007;BMP180;56061;51.748;19.620;2022-09-12T07:36:38;98768.40;;;13.60
69007;BMP180;56061;51.748;19.620;2022-09-12T07:39:04;98773.20;;;13.70
69007;BMP180;56061;51.748;19.620;2022-09-12T07:41:32;98768.20;;;13.70
69007;BMP180;56061;51.748;19.620;2022-09-12T07:44:02;98775.60;;;13.80
69007;BMP180;56061;51.748;19.620;2022-09-12T07:46:32;98775.40;;;13.90
69007;BMP180;56061;51.748;19.620;2022-09-12T07:49:00;98780.80;;;14.00
69007;BMP180;56061;51.748;19.620;2022-09-12T07:51:29;98779.80;;;14.10
69007;BMP180;56061;51.748;19.620;2022-09-12T07:53:57;98781.80;;;14.10
69007;BMP180;56061;51.748;19.620;2022-09-12T07:56:25;98784.80;;;14.20
69007;BMP180;56061;51.748;19.620;2022-09-12T07:58:57;98788.80;;;14.20
69007;BMP180;56061;51.748;19.620;2022-09-12T08:01:24;98786.00;;;14.30
69007;BMP180;56061;51.748;19.620;2022-09-12T08:03:58;98791.40;;;14.40
69007;BMP180;56061;51.748;19.620;2022-09-12T08:06:27;98789.40;;;14.50
69007;BMP180;56061;51.748;19.620;2022-09-12T08:08:58;98791.80;;;14.60
69007;BMP180;56061;51.748;19.620;2022-09-12T08:11:27;98788.20;;;14.60
69007;BMP180;56061;51.748;19.620;2022-09-12T08:13:56;98791.20;;;14.60
69007;BMP180;56061;51.748;19.620;2022-09-12T08:16:28;98794.20;;;14.60
69007;BMP180;56061;51.748;19.620;2022-09-12T08:18:56;98795.40;;;14.60
69007;BMP180;56061;51.748;19.620;2022-09-12T08:21:27;98791.60;;;14.70
69007;BMP180;56061;51.748;19.620;2022-09-12T08:24:03;98788.20;;;14.86
69007;BMP180;56061;51.748;19.620;2022-09-12T08:26:32;98786.20;;;15.00
69007;BMP180;56061;51.748;19.620;2022-09-12T08:29:00;98782.40;;;15.10
69007;BMP180;56061;51.748;19.620;2022-09-12T08:31:27;98787.00;;;15.12
69007;BMP180;56061;51.748;19.620;2022-09-12T08:33:55;98781.00;;;15.26
69007;BMP180;56061;51.748;19.620;2022-09-12T08:36:25;98784.80;;;15.34
69007;BMP180;56061;51.748;19.620;2022-09-12T08:38:56;98777.00;;;15.50
69007;BMP180;56061;51.748;19.620;2022-09-12T08:41:38;98783.00;;;15.60
69007;BMP180;56061;51.748;19.620;2022-09-12T08:47:17;98787.60;;;15.70
69007;BMP180;56061;51.748;19.620;2022-09-12T08:55:39;98796.00;;;15.70
69007;BMP180;56061;51.748;19.620;2022-09-12T08:58:14;98798.60;;;15.70
69007;BMP180;56061;51.748;19.620;2022-09-12T09:00:54;98799.60;;;15.78
69007;BMP180;56061;51.748;19.620;2022-09-12T09:15:43;98791.80;;;16.10
69007;BMP180;56061;51.748;19.620;2022-09-12T09:18:23;98800.00;;;16.10
69007;BMP180;56061;51.748;19.620;2022-09-12T09:20:59;98793.00;;;16.00
69007;BMP180;56061;51.748;19.620;2022-09-12T09:23:34;98799.40;;;16.00
69007;BMP180;56061;51.748;19.620;2022-09-12T09:26:22;98794.60;;;16.10
69007;BMP180;56061;51.748;19.620;2022-09-12T09:29:02;98794.40;;;16.10
69007;BMP180;56061;51.748;19.620;2022-09-12T09:31:37;98808.40;;;16.10
69007;BMP180;56061;51.748;19.620;2022-09-12T09:34:23;98801.00;;;16.10
69007;BMP180;56061;51.748;19.620;2022-09-12T09:40:16;98794.60;;;16.32
69007;BMP180;56061;51.748;19.620;2022-09-12T09:43:11;98801.60;;;16.40
69007;BMP180;56061;51.748;19.620;2022-09-12T09:45:41;98797.40;;;16.34
69007;BMP180;56061;51.748;19.620;2022-09-12T09:48:21;98792.40;;;16.44
69007;BMP180;56061;51.748;19.620;2022-09-12T09:50:49;98796.60;;;16.60
69007;BMP180;56061;51.748;19.620;2022-09-12T09:56:17;98794.40;;;16.70
69007;BMP180;56061;51.748;19.620;2022-09-12T09:58:48;98794.40;;;16.90
69007;BMP180;56061;51.748;19.620;2022-09-12T10:01:16;98811.00;;;17.00
69007;BMP180;56061;51.748;19.620;2022-09-12T10:03:52;98802.60;;;16.90
69007;BMP180;56061;51.748;19.620;2022-09-12T10:08:48;98809.00;;;16.60
69007;BMP180;56061;51.748;19.620;2022-09-12T10:13:55;98802.40;;;16.90
69007;BMP180;56061;51.748;19.620;2022-09-12T10:16:33;98802.80;;;17.10
69007;BMP180;56061;51.748;19.620;2022-09-12T10:19:02;98814.20;;;17.00
69007;BMP180;56061;51.748;19.620;2022-09-12T10:21:45;98805.20;;;17.00
69007;BMP180;56061;51.748;19.620;2022-09-12T10:24:23;98805.20;;;17.10
69007;BMP180;56061;51.748;19.620;2022-09-12T10:29:51;98809.20;;;17.30
69007;BMP180;56061;51.748;19.620;2022-09-12T10:32:43;98813.40;;;17.20
69007;BMP180;56061;51.748;19.620;2022-09-12T10:35:41;98812.40;;;17.10
69007;BMP180;56061;51.748;19.620;2022-09-12T10:38:22;98808.00;;;17.20
69007;BMP180;56061;51.748;19.620;2022-09-12T10:41:06;98809.60;;;17.40
69007;BMP180;56061;51.748;19.620;2022-09-12T10:51:27;98816.40;;;17.10
69007;BMP180;56061;51.748;19.620;2022-09-12T10:53:57;98819.20;;;17.00
69007;BMP180;56061;51.748;19.620;2022-09-12T10:56:39;98816.80;;;17.02
69007;BMP180;56061;51.748;19.620;2022-09-12T11:02:29;98816.40;;;17.40
69007;BMP180;56061;51.748;19.620;2022-09-12T11:07:45;98821.40;;;17.20
69007;BMP180;56061;51.748;19.620;2022-09-12T11:13:15;98820.80;;;17.42
69007;BMP180;56061;51.748;19.620;2022-09-12T11:16:05;98828.40;;;17.60
69007;BMP180;56061;51.748;19.620;2022-09-12T11:22:11;98821.60;;;17.80
69007;BMP180;56061;51.748;19.620;2022-09-12T11:30:15;98823.20;;;17.80
69007;BMP180;56061;51.748;19.620;2022-09-12T11:35:48;98820.60;;;17.94
69007;BMP180;56061;51.748;19.620;2022-09-12T11:38:56;98823.80;;;18.00
69007;BMP180;56061;51.748;19.620;2022-09-12T11:41:31;98826.00;;;17.80
69007;BMP180;56061;51.748;19.620;2022-09-12T11:44:21;98825.60;;;17.70
69007;BMP180;56061;51.748;19.620;2022-09-12T11:46:49;98820.80;;;17.70
69007;BMP180;56061;51.748;19.620;2022-09-12T11:49:27;98824.20;;;17.70
69007;BMP180;56061;51.748;19.620;2022-09-12T11:52:14;98818.40;;;17.78
69007;BMP180;56061;51.748;19.620;2022-09-12T11:57:52;98820.80;;;17.80
69007;BMP180;56061;51.748;19.620;2022-09-12T12:00:24;98826.00;;;17.80
69007;BMP180;56061;51.748;19.620;2022-09-12T12:06:03;98826.80;;;17.70
69007;BMP180;56061;51.748;19.620;2022-09-12T12:08:38;98821.00;;;17.80
69007;BMP180;56061;51.748;19.620;2022-09-12T12:11:07;98820.60;;;17.88
69007;BMP180;56061;51.748;19.620;2022-09-12T12:13:39;98819.00;;;17.98
69007;BMP180;56061;51.748;19.620;2022-09-12T12:16:28;98817.00;;;18.12
69007;BMP180;56061;51.748;19.620;2022-09-12T12:19:04;98828.40;;;18.20
69007;BMP180;56061;51.748;19.620;2022-09-12T12:21:42;98830.80;;;18.02
69007;BMP180;56061;51.748;19.620;2022-09-12T12:36:55;98828.20;;;18.00
69007;BMP180;56061;51.748;19.620;2022-09-12T12:52:56;98827.00;;;18.40
69007;BMP180;56061;51.748;19.620;2022-09-12T12:55:46;98833.00;;;18.20
69007;BMP180;56061;51.748;19.620;2022-09-12T12:58:31;98826.40;;;18.00
69007;BMP180;56061;51.748;19.620;2022-09-12T13:01:17;98830.80;;;17.70
69007;BMP180;56061;51.748;19.620;2022-09-12T13:03:53;98828.40;;;17.70
69007;BMP180;56061;51.748;19.620;2022-09-12T13:06:38;98828.40;;;17.70
69007;BMP180;56061;51.748;19.620;2022-09-12T13:09:54;98830.80;;;17.70
69007;BMP180;56061;51.748;19.620;2022-09-12T13:12:31;98823.00;;;17.90
69007;BMP180;56061;51.748;19.620;2022-09-12T13:15:02;98821.40;;;18.00
69007;BMP180;56061;51.748;19.620;2022-09-12T13:17:35;98821.00;;;18.00
69007;BMP180;56061;51.748;19.620;2022-09-12T13:22:56;98821.40;;;18.30
69007;BMP180;56061;51.748;19.620;2022-09-12T13:30:33;98828.60;;;18.02
69007;BMP180;56061;51.748;19.620;2022-09-12T13:33:47;98829.20;;;18.10
69007;BMP180;56061;51.748;19.620;2022-09-12T13:39:32;98823.20;;;18.48
69007;BMP180;56061;51.748;19.620;2022-09-12T13:47:43;98814.60;;;18.80
69007;BMP180;56061;51.748;19.620;2022-09-12T13:50:23;98817.40;;;19.00
69007;BMP180;56061;51.748;19.620;2022-09-12T13:53:00;98821.60;;;19.30
69007;BMP180;56061;51.748;19.620;2022-09-12T13:55:39;98819.80;;;19.40
69007;BMP180;56061;51.748;19.620;2022-09-12T13:58:21;98814.00;;;19.40
69007;BMP180;56061;51.748;19.620;2022-09-12T14:03:38;98823.40;;;18.96
69007;BMP180;56061;51.748;19.620;2022-09-12T14:06:25;98822.20;;;18.50
69007;BMP180;56061;51.748;19.620;2022-09-12T14:08:54;98815.80;;;18.20
69007;BMP180;56061;51.748;19.620;2022-09-12T14:11:29;98816.40;;;18.00
69007;BMP180;56061;51.748;19.620;2022-09-12T14:13:56;98821.40;;;18.02
69007;BMP180;56061;51.748;19.620;2022-09-12T14:16:24;98824.80;;;18.10
69007;BMP180;56061;51.748;19.620;2022-09-12T14:18:54;98823.00;;;18.10
69007;BMP180;56061;51.748;19.620;2022-09-12T14:23:53;98824.00;;;18.30
69007;BMP180;56061;51.748;19.620;2022-09-12T14:26:20;98823.00;;;18.30
69007;BMP180;56061;51.748;19.620;2022-09-12T14:28:49;98824.20;;;18.20
69007;BMP180;56061;51.748;19.620;2022-09-12T14:31:27;98827.00;;;18.20
69007;BMP180;56061;51.748;19.620;2022-09-12T14:34:18;98824.00;;;18.10
69007;BMP180;56061;51.748;19.620;2022-09-12T14:36:50;98827.00;;;18.00
69007;BMP180;56061;51.748;19.620;2022-09-12T14:39:41;98828.60;;;18.00
69007;BMP180;56061;51.748;19.620;2022-09-12T14:42:16;98826.80;;;17.90
69007;BMP180;56061;51.748;19.620;2022-09-12T14:45:00;98827.00;;;18.00
69007;BMP180;56061;51.748;19.620;2022-09-12T14:47:37;98831.40;;;18.00
69007;BMP180;56061;51.748;19.620;2022-09-12T14:50:26;98832.60;;;17.86
69007;BMP180;56061;51.748;19.620;2022-09-12T14:53:29;98832.20;;;17.70
69007;BMP180;56061;51.748;19.620;2022-09-12T14:56:12;98829.80;;;17.60
69007;BMP180;56061;51.748;19.620;2022-09-12T14:58:40;98828.60;;;17.70
69007;BMP180;56061;51.748;19.620;2022-09-12T15:03:48;98828.40;;;17.60
69007;BMP180;56061;51.748;19.620;2022-09-12T15:06:29;98828.20;;;17.50
69007;BMP180;56061;51.748;19.620;2022-09-12T15:09:01;98827.60;;;17.50
69007;BMP180;56061;51.748;19.620;2022-09-12T15:11:28;98831.80;;;17.44
69007;BMP180;56061;51.748;19.620;2022-09-12T15:13:55;98833.00;;;17.40
69007;BMP180;56061;51.748;19.620;2022-09-12T15:16:21;98829.00;;;17.60
69007;BMP180;56061;51.748;19.620;2022-09-12T15:18:48;98826.20;;;17.80
69007;BMP180;56061;51.748;19.620;2022-09-12T15:21:18;98821.80;;;18.10
69007;BMP180;56061;51.748;19.620;2022-09-12T15:23:48;98818.00;;;18.30
69007;BMP180;56061;51.748;19.620;2022-09-12T15:26:20;98823.00;;;18.62
69007;BMP180;56061;51.748;19.620;2022-09-12T15:28:48;98814.40;;;18.90
69007;BMP180;56061;51.748;19.620;2022-09-12T15:31:22;98814.40;;;19.00
69007;BMP180;56061;51.748;19.620;2022-09-12T15:33:49;98812.00;;;19.12
69007;BMP180;56061;51.748;19.620;2022-09-12T15:36:19;98809.20;;;19.22
69007;BMP180;56061;51.748;19.620;2022-09-12T15:38:47;98817.80;;;19.40
69007;BMP180;56061;51.748;19.620;2022-09-12T15:41:31;98819.60;;;19.40
69007;BMP180;56061;51.748;19.620;2022-09-12T15:43:58;98816.80;;;19.20
69007;BMP180;56061;51.748;19.620;2022-09-12T15:46:25;98812.00;;;19.10
69007;BMP180;56061;51.748;19.620;2022-09-12T15:48:51;98816.20;;;19.02
69007;BMP180;56061;51.748;19.620;2022-09-12T15:51:20;98818.40;;;18.80
69007;BMP180;56061;51.748;19.620;2022-09-12T15:53:48;98819.60;;;18.60
69007;BMP180;56061;51.748;19.620;2022-09-12T15:56:17;98820.00;;;18.50
69007;BMP180;56061;51.748;19.620;2022-09-12T15:58:45;98819.40;;;18.50
69007;BMP180;56061;51.748;19.620;2022-09-12T16:01:24;98818.80;;;18.56
69007;BMP180;56061;51.748;19.620;2022-09-12T16:03:51;98821.40;;;18.60
69007;BMP180;56061;51.748;19.620;2022-09-12T16:06:18;98812.00;;;18.70
69007;BMP180;56061;51.748;19.620;2022-09-12T16:08:45;98813.20;;;18.70
69007;BMP180;56061;51.748;19.620;2022-09-12T16:11:24;98813.60;;;18.70
69007;BMP180;56061;51.748;19.620;2022-09-12T16:13:52;98818.60;;;18.60
69007;BMP180;56061;51.748;19.620;2022-09-12T16:16:20;98817.80;;;18.66
69007;BMP180;56061;51.748;19.620;2022-09-12T16:18:46;98823.40;;;18.60
69007;BMP180;56061;51.748;19.620;2022-09-12T16:21:13;98822.20;;;18.54
69007;BMP180;56061;51.748;19.620;2022-09-12T16:23:47;98822.40;;;18.36
69007;BMP180;56061;51.748;19.620;2022-09-12T16:26:14;98828.00;;;18.18
69007;BMP180;56061;51.748;19.620;2022-09-12T16:28:41;98828.20;;;18.00
69007;BMP180;56061;51.748;19.620;2022-09-12T16:31:11;98830.40;;;17.90
69007;BMP180;56061;51.748;19.620;2022-09-12T16:33:39;98829.40;;;17.80
69007;BMP180;56061;51.748;19.620;2022-09-12T16:36:12;98828.60;;;17.70
69007;BMP180;56061;51.748;19.620;2022-09-12T16:38:52;98833.00;;;17.50
69007;BMP180;56061;51.748;19.620;2022-09-12T16:41:22;98837.00;;;17.30
69007;BMP180;56061;51.748;19.620;2022-09-12T16:43:54;98837.40;;;17.12
69007;BMP180;56061;51.748;19.620;2022-09-12T16:46:26;98840.20;;;17.00
69007;BMP180;56061;51.748;19.620;2022-09-12T16:48:57;98839.40;;;16.80
69007;BMP180;56061;51.748;19.620;2022-09-12T16:51:28;98840.40;;;16.60
69007;BMP180;56061;51.748;19.620;2022-09-12T16:53:55;98841.40;;;16.50
69007;BMP180;56061;51.748;19.620;2022-09-12T16:56:23;98839.80;;;16.30
69007;BMP180;56061;51.748;19.620;2022-09-12T16:58:50;98844.40;;;16.10
69007;BMP180;56061;51.748;19.620;2022-09-12T17:01:20;98840.00;;;15.90
69007;BMP180;56061;51.748;19.620;2022-09-12T17:03:53;98841.40;;;15.78